createdAt,value
2018-09-19T00:00:07.936Z,100994.89
2018-09-19T00:02:36.136Z,100994.92
2018-09-19T00:05:04.303Z,100995.81
2018-09-19T00:07:32.459Z,100993.59
2018-09-19T00:10:00.706Z,100994.50
2018-09-19T00:12:29.095Z,101001.50
2018-09-19T00:14:57.372Z,101007.18
2018-09-19T00:17:25.645Z,101008.90
2018-09-19T00:19:53.960Z,101009.74
2018-09-19T00:22:22.097Z,101014.16
2018-09-19T00:24:50.309Z,101007.44
2018-09-19T00:27:18.482Z,101007.47
2018-09-19T00:29:46.623Z,101013.17
2018-09-19T00:32:14.818Z,101008.36
2018-09-19T00:34:43.017Z,101010.99
2018-09-19T00:37:11.254Z,101017.15
2018-09-19T00:39:39.466Z,101012.84
2018-09-19T00:42:07.834Z,101013.67
2018-09-19T00:44:36.083Z,101023.74
2018-09-19T00:47:04.252Z,101029.47
2018-09-19T00:49:32.467Z,101032.11
2018-09-19T00:52:00.666Z,101034.27
2018-09-19T00:54:29.096Z,101042.15
2018-09-19T00:56:57.295Z,101045.73
2018-09-19T00:59:25.439Z,101047.88
2018-09-19T01:01:53.723Z,101046.58
2018-09-19T01:04:21.900Z,101049.55
2018-09-19T01:06:50.355Z,101058.30
2018-09-19T01:09:18.727Z,101057.83
2018-09-19T01:11:46.842Z,101058.36
2018-09-19T01:14:15.230Z,101063.56
2018-09-19T01:16:43.423Z,101058.31
2018-09-19T01:19:11.624Z,101065.37
2018-09-19T01:21:39.809Z,101064.92
2018-09-19T01:24:07.982Z,101062.62
2018-09-19T01:26:36.216Z,101074.98
2018-09-19T01:29:04.407Z,101065.88
2018-09-19T01:31:39.428Z,101069.97
2018-09-19T01:34:07.675Z,101070.25
2018-09-19T01:36:35.848Z,101070.46
2018-09-19T01:39:05.039Z,101084.64
2018-09-19T01:41:33.198Z,101089.49
2018-09-19T01:44:01.382Z,101100.92
2018-09-19T01:46:30.137Z,101107.06
2018-09-19T01:48:58.320Z,101115.88
2018-09-19T01:51:26.440Z,101126.84
2018-09-19T01:53:54.777Z,101133.02
2018-09-19T01:56:22.943Z,101136.10
2018-09-19T01:58:51.118Z,101141.80
2018-09-19T02:01:19.326Z,101135.19
2018-09-19T02:03:54.149Z,101145.69
2018-09-19T02:06:22.295Z,101155.80
2018-09-19T02:08:50.619Z,101166.35
2018-09-19T02:11:18.861Z,101181.25
2018-09-19T02:13:47.075Z,101179.54
2018-09-19T02:16:15.543Z,101182.55
2018-09-19T02:18:43.702Z,101190.01
2018-09-19T02:21:12.463Z,101182.99
2018-09-19T02:23:40.664Z,101184.23
2018-09-19T02:26:08.869Z,101184.70
2018-09-19T02:28:37.185Z,101177.21
2018-09-19T02:31:05.415Z,101190.80
2018-09-19T02:33:33.599Z,101188.12
2018-09-19T02:36:01.780Z,101185.49
2018-09-19T02:38:30.255Z,101184.17
2018-09-19T02:40:59.204Z,101191.56
2018-09-19T02:43:27.469Z,101192.04
2018-09-19T02:45:55.777Z,101207.38
2018-09-19T02:48:23.998Z,101201.69
2018-09-19T02:50:52.189Z,101200.73
2018-09-19T02:53:20.508Z,101194.16
2018-09-19T02:55:48.747Z,101203.80
2018-09-19T02:58:16.924Z,101205.97
2018-09-19T03:00:45.253Z,101206.83
2018-09-19T03:03:13.443Z,101217.73
2018-09-19T03:05:41.707Z,101216.02
2018-09-19T03:08:12.997Z,101208.98
2018-09-19T03:10:41.180Z,101209.38
2018-09-19T03:13:09.341Z,101214.05
2018-09-19T03:15:37.580Z,101218.42
2018-09-19T03:18:05.855Z,101221.59
2018-09-19T03:20:34.133Z,101220.17
2018-09-19T03:23:02.343Z,101221.88
2018-09-19T03:25:30.533Z,101234.36
2018-09-19T03:27:58.880Z,101232.63
2018-09-19T03:30:27.103Z,101232.59
2018-09-19T03:32:55.300Z,101235.91
2018-09-19T03:35:23.668Z,101244.59
2018-09-19T03:37:52.059Z,101246.85
2018-09-19T03:40:20.301Z,101250.65
2018-09-19T03:42:48.487Z,101246.28
2018-09-19T03:45:16.683Z,101244.64
2018-09-19T03:47:44.925Z,101249.09
2018-09-19T03:50:13.208Z,101251.98
2018-09-19T03:52:43.064Z,101255.98
2018-09-19T03:55:11.219Z,101255.50
2018-09-19T03:57:39.415Z,101252.87
2018-09-19T04:00:07.617Z,101252.40
2018-09-19T04:02:35.955Z,101251.97
2018-09-19T04:05:04.103Z,101264.61
2018-09-19T04:07:32.276Z,101267.09
2018-09-19T04:10:00.444Z,101265.48
2018-09-19T04:12:28.597Z,101269.37
2018-09-19T04:14:56.825Z,101269.99
2018-09-19T04:17:25.071Z,101265.07
2018-09-19T04:19:53.236Z,101267.22
2018-09-19T04:22:21.420Z,101269.41
2018-09-19T04:24:49.668Z,101270.31
2018-09-19T04:27:17.916Z,101278.59
2018-09-19T04:29:46.110Z,101283.11
2018-09-19T04:32:14.360Z,101279.59
2018-09-19T04:34:42.466Z,101283.42
2018-09-19T04:37:10.906Z,101284.64
2018-09-19T04:39:39.061Z,101294.80
2018-09-19T04:42:07.601Z,101287.81
2018-09-19T04:44:35.775Z,101290.87
2018-09-19T04:47:03.886Z,101288.52
2018-09-19T04:49:32.150Z,101295.41
2018-09-19T04:52:00.399Z,101296.31
2018-09-19T04:54:33.693Z,101302.09
2018-09-19T04:57:01.890Z,101305.89
2018-09-19T04:59:30.171Z,101303.70
2018-09-19T05:01:58.407Z,101311.66
2018-09-19T05:04:27.311Z,101316.86
2018-09-19T05:06:55.584Z,101311.24
2018-09-19T05:09:24.210Z,101311.65
2018-09-19T05:11:52.447Z,101320.45
2018-09-19T05:14:20.694Z,101324.39
2018-09-19T05:16:49.963Z,101322.23
2018-09-19T05:19:18.332Z,101322.99
2018-09-19T05:21:46.543Z,101333.72
2018-09-19T05:24:14.801Z,101328.42
2018-09-19T05:26:42.996Z,101330.97
2018-09-19T05:29:11.269Z,101330.34
2018-09-19T05:31:39.584Z,101327.63
2018-09-19T05:34:07.741Z,101335.14
2018-09-19T05:36:36.063Z,101338.30
2018-09-19T05:39:05.586Z,101343.99
2018-09-19T05:41:33.842Z,101347.99
2018-09-19T05:44:02.089Z,101347.58
2018-09-19T05:46:30.359Z,101342.04
2018-09-19T05:48:58.673Z,101343.01
2018-09-19T05:51:26.981Z,101351.94
2018-09-19T05:53:55.144Z,101351.13
2018-09-19T05:56:23.301Z,101352.19
2018-09-19T05:58:51.688Z,101354.84
2018-09-19T06:01:19.881Z,101361.48
2018-09-19T06:03:48.157Z,101357.20
2018-09-19T06:06:16.369Z,101359.88
2018-09-19T06:08:45.633Z,101356.89
2018-09-19T06:11:22.811Z,101364.41
2018-09-19T06:13:51.767Z,101356.31
2018-09-19T06:16:20.042Z,101358.94
2018-09-19T06:18:48.345Z,101365.61
2018-09-19T06:21:16.517Z,101366.86
2018-09-19T06:23:44.754Z,101369.08
2018-09-19T06:26:12.999Z,101373.05
2018-09-19T06:28:41.244Z,101380.48
2018-09-19T06:31:09.471Z,101380.97
2018-09-19T06:33:37.691Z,101382.73
2018-09-19T06:36:06.019Z,101388.93
2018-09-19T06:38:34.226Z,101390.34
2018-09-19T06:41:02.620Z,101399.63
2018-09-19T06:43:30.823Z,101398.27
2018-09-19T06:45:58.990Z,101403.13
2018-09-19T06:48:27.259Z,101411.52
2018-09-19T06:50:55.431Z,101406.23
2018-09-19T06:53:23.675Z,101407.57
2018-09-19T06:55:52.093Z,101408.10
2018-09-19T06:58:20.674Z,101408.10
2018-09-19T07:00:48.814Z,101410.28
2018-09-19T07:03:17.227Z,101418.53
2018-09-19T07:05:45.446Z,101426.91
2018-09-19T07:08:13.656Z,101423.45
2018-09-19T07:10:41.867Z,101426.64
2018-09-19T07:13:10.060Z,101427.96
2018-09-19T07:15:38.242Z,101427.99
2018-09-19T07:18:06.383Z,101427.61
2018-09-19T07:20:34.619Z,101429.86
2018-09-19T07:23:02.791Z,101431.61
2018-09-19T07:25:31.136Z,101436.92
2018-09-19T07:27:59.393Z,101442.67
2018-09-19T07:30:27.614Z,101444.86
2018-09-19T07:32:55.817Z,101444.80
2018-09-19T07:35:24.393Z,101447.91
2018-09-19T07:37:52.692Z,101445.28
2018-09-19T07:40:20.928Z,101454.13
2018-09-19T07:42:49.036Z,101449.31
2018-09-19T07:45:17.300Z,101445.79
2018-09-19T07:47:46.183Z,101441.38
2018-09-19T07:50:14.379Z,101447.98
2018-09-19T07:52:42.621Z,101448.38
2018-09-19T07:55:11.089Z,101451.48
2018-09-19T07:57:39.199Z,101456.34
2018-09-19T08:00:07.489Z,101452.30
2018-09-19T08:02:35.769Z,101457.14
2018-09-19T08:05:04.029Z,101452.76
2018-09-19T08:07:32.235Z,101448.78
2018-09-19T08:10:00.730Z,101449.72
2018-09-19T08:12:28.926Z,101455.45
2018-09-19T08:14:57.205Z,101457.13
2018-09-19T08:17:25.438Z,101453.59
2018-09-19T08:19:53.586Z,101456.68
2018-09-19T08:22:21.746Z,101452.66
2018-09-19T08:24:50.140Z,101462.36
2018-09-19T08:27:18.319Z,101463.27
2018-09-19T08:29:46.499Z,101462.42
2018-09-19T08:32:14.659Z,101459.74
2018-09-19T08:34:42.983Z,101451.84
2018-09-19T08:37:11.188Z,101452.21
2018-09-19T08:39:39.435Z,101453.13
2018-09-19T08:42:07.736Z,101450.87
2018-09-19T08:44:35.940Z,101449.09
2018-09-19T08:47:04.189Z,101450.86
2018-09-19T08:49:33.037Z,101453.92
2018-09-19T08:52:01.875Z,101457.49
2018-09-19T08:54:30.180Z,101460.52
2018-09-19T08:56:58.533Z,101454.88
2018-09-19T08:59:26.721Z,101459.25
2018-09-19T09:01:54.900Z,101460.07
2018-09-19T09:04:23.069Z,101458.30
2018-09-19T09:06:51.282Z,101464.90
2018-09-19T09:09:19.466Z,101456.95
2018-09-19T09:11:47.639Z,101461.33
2018-09-19T09:14:15.938Z,101455.94
2018-09-19T09:16:44.291Z,101464.32
2018-09-19T09:19:12.568Z,101467.39
2018-09-19T09:21:40.745Z,101467.00
2018-09-19T09:24:09.023Z,101464.71
2018-09-19T09:26:37.272Z,101462.45
2018-09-19T09:29:05.485Z,101463.29
2018-09-19T09:31:33.860Z,101461.99
2018-09-19T09:34:02.648Z,101468.20
2018-09-19T09:36:30.873Z,101461.05
2018-09-19T09:39:00.234Z,101455.22
2018-09-19T09:41:28.448Z,101447.86
2018-09-19T09:43:56.694Z,101453.97
2018-09-19T09:46:24.901Z,101453.02
2018-09-19T09:48:53.089Z,101454.27
2018-09-19T09:51:21.512Z,101459.95
2018-09-19T09:53:49.738Z,101460.33
2018-09-19T09:56:17.976Z,101443.44
2018-09-19T09:58:47.524Z,101444.72
2018-09-19T10:01:16.516Z,101449.53
2018-09-19T10:03:44.851Z,101445.41
2018-09-19T10:06:13.135Z,101454.28
2018-09-19T10:08:41.343Z,101450.52
2018-09-19T10:11:09.503Z,101446.06
2018-09-19T10:13:38.289Z,101448.30
2018-09-19T10:16:06.646Z,101438.09
2018-09-19T10:18:35.027Z,101439.42
2018-09-19T10:21:03.229Z,101444.67
2018-09-19T10:23:31.472Z,101444.55
2018-09-19T10:25:59.668Z,101439.70
2018-09-19T10:28:27.861Z,101433.45
2018-09-19T10:30:56.156Z,101432.93
2018-09-19T10:33:24.457Z,101427.55
2018-09-19T10:35:52.688Z,101432.17
2018-09-19T10:38:20.853Z,101420.53
2018-09-19T10:40:49.037Z,101417.75
2018-09-19T10:43:17.340Z,101417.80
2018-09-19T10:45:45.557Z,101420.59
2018-09-19T10:48:17.826Z,101417.33
2018-09-19T10:50:46.772Z,101411.03
2018-09-19T10:53:15.100Z,101415.07
2018-09-19T10:55:44.148Z,101402.58
2018-09-19T10:58:16.190Z,101404.03
2018-09-19T11:00:44.598Z,101406.10
2018-09-19T11:03:13.055Z,101401.62
2018-09-19T11:05:41.424Z,101400.05
2018-09-19T11:08:09.632Z,101401.24
2018-09-19T11:10:37.911Z,101400.69
2018-09-19T11:13:06.233Z,101392.70
2018-09-19T11:15:34.636Z,101389.89
2018-09-19T11:18:02.794Z,101394.13
2018-09-19T11:20:31.566Z,101394.12
2018-09-19T11:23:00.124Z,101389.59
2018-09-19T11:25:28.344Z,101386.13
2018-09-19T11:27:56.572Z,101387.61
2018-09-19T11:30:24.886Z,101384.98
2018-09-19T11:32:53.085Z,101382.31
2018-09-19T11:35:21.278Z,101376.83
2018-09-19T11:37:49.462Z,101380.02
2018-09-19T11:40:17.870Z,101371.69
2018-09-19T11:42:46.259Z,101368.92
2018-09-19T11:45:14.590Z,101370.08
2018-09-19T11:47:42.920Z,101374.33
2018-09-19T11:50:11.152Z,101367.46
2018-09-19T11:52:39.272Z,101365.32
2018-09-19T11:55:08.051Z,101365.96
2018-09-19T11:57:36.268Z,101364.44
2018-09-19T12:00:04.725Z,101372.44
2018-09-19T12:02:32.974Z,101365.04
2018-09-19T12:05:01.169Z,101352.56
2018-09-19T12:07:29.638Z,101352.27
2018-09-19T12:09:57.914Z,101358.08
2018-09-19T12:12:26.354Z,101348.84
2018-09-19T12:14:55.296Z,101347.52
2018-09-19T12:17:23.612Z,101343.11
2018-09-19T12:19:51.975Z,101341.81
2018-09-19T12:22:20.110Z,101341.31
2018-09-19T12:24:48.343Z,101339.43
2018-09-19T12:27:17.144Z,101332.06
2018-09-19T12:29:45.422Z,101320.93
2018-09-19T12:32:13.613Z,101326.06
2018-09-19T12:34:41.911Z,101331.17
2018-09-19T12:37:10.089Z,101327.05
2018-09-19T12:39:38.341Z,101329.40
2018-09-19T12:42:06.704Z,101323.55
2018-09-19T12:44:35.137Z,101326.24
2018-09-19T12:47:03.451Z,101325.89
2018-09-19T12:49:31.836Z,101323.93
2018-09-19T12:52:00.492Z,101334.52
2018-09-19T12:54:28.734Z,101329.18
2018-09-19T12:56:56.962Z,101321.09
2018-09-19T12:59:26.287Z,101322.89
2018-09-19T13:01:55.102Z,101312.60
2018-09-19T13:04:26.802Z,101319.89
2018-09-19T13:06:55.254Z,101314.17
2018-09-19T13:09:23.515Z,101312.87
2018-09-19T13:11:52.029Z,101312.73
2018-09-19T13:14:20.178Z,101302.75
2018-09-19T13:16:48.388Z,101304.64
2018-09-19T13:19:16.629Z,101300.09
2018-09-19T13:21:44.838Z,101288.97
2018-09-19T13:24:13.934Z,101283.12
2018-09-19T13:26:42.174Z,101276.39
2018-09-19T13:29:10.703Z,101274.99
2018-09-19T13:31:38.893Z,101268.61
2018-09-19T13:34:07.259Z,101264.17
2018-09-19T13:36:35.428Z,101272.23
2018-09-19T13:39:04.228Z,101270.09
2018-09-19T13:41:32.441Z,101276.33
2018-09-19T13:44:00.871Z,101272.67
2018-09-19T13:46:29.199Z,101280.18
2018-09-19T13:49:02.111Z,101274.16
2018-09-19T13:51:30.508Z,101280.24
2018-09-19T13:53:58.747Z,101272.61
2018-09-19T13:56:27.052Z,101272.77
2018-09-19T13:58:55.378Z,101268.77
2018-09-19T14:01:23.736Z,101254.98
2018-09-19T14:03:52.067Z,101253.86
2018-09-19T14:06:21.188Z,101258.92
2018-09-19T14:08:49.608Z,101260.41
2018-09-19T14:11:17.806Z,101248.91
2018-09-19T14:13:46.080Z,101249.68
2018-09-19T14:16:14.370Z,101242.23
2018-09-19T14:18:42.741Z,101242.23
2018-09-19T14:21:10.924Z,101248.55
2018-09-19T14:23:39.185Z,101240.80
2018-09-19T14:26:07.616Z,101237.80
2018-09-19T14:28:35.834Z,101240.13
2018-09-19T14:31:04.056Z,101237.16
2018-09-19T14:33:32.498Z,101237.89
2018-09-19T14:36:00.800Z,101234.16
2018-09-19T14:38:29.105Z,101239.97
2018-09-19T14:40:57.389Z,101236.69
2018-09-19T14:43:25.833Z,101238.98
2018-09-19T14:45:53.991Z,101245.66
2018-09-19T14:48:22.330Z,101237.89
2018-09-19T14:50:51.721Z,101233.99
2018-09-19T14:53:20.115Z,101232.89
2018-09-19T14:55:48.563Z,101224.95
2018-09-19T14:58:17.063Z,101227.61
2018-09-19T15:00:45.317Z,101224.90
2018-09-19T15:03:13.577Z,101235.83
2018-09-19T15:05:41.893Z,101234.44
2018-09-19T15:08:10.287Z,101234.75
2018-09-19T15:10:38.501Z,101234.78
2018-09-19T15:13:07.232Z,101226.13
2018-09-19T15:15:36.267Z,101218.89
2018-09-19T15:18:04.642Z,101220.20
2018-09-19T15:20:32.988Z,101211.79
2018-09-19T15:23:01.286Z,101209.55
2018-09-19T15:25:29.681Z,101204.95
2018-09-19T15:27:58.005Z,101205.45
2018-09-19T15:30:26.181Z,101205.52
2018-09-19T15:32:54.451Z,101198.23
2018-09-19T15:35:22.692Z,101196.27
2018-09-19T15:37:52.086Z,101199.37
2018-09-19T15:40:20.644Z,101194.81
2018-09-19T15:42:48.828Z,101195.30
2018-09-19T15:45:31.124Z,101198.63
2018-09-19T15:47:59.476Z,101197.50
2018-09-19T15:50:27.975Z,101191.42
2018-09-19T15:52:57.079Z,101197.42
2018-09-19T15:55:25.529Z,101192.52
2018-09-19T15:57:54.060Z,101181.84
2018-09-19T16:00:22.315Z,101186.98
2018-09-19T16:02:50.571Z,101181.66
2018-09-19T16:05:18.777Z,101181.47
2018-09-19T16:07:47.581Z,101183.54
2018-09-19T16:10:15.793Z,101171.58
2018-09-19T16:12:43.957Z,101177.50
2018-09-19T16:15:12.297Z,101182.74
2018-09-19T16:17:40.591Z,101182.40
2018-09-19T16:20:08.813Z,101188.03
2018-09-19T16:22:37.096Z,101176.56
2018-09-19T16:25:05.317Z,101182.56
2018-09-19T16:27:34.375Z,101181.43
2018-09-19T16:30:03.648Z,101181.30
2018-09-19T16:32:31.918Z,101180.20
2018-09-19T16:35:00.415Z,101178.28
2018-09-19T16:37:32.791Z,101184.70
2018-09-19T16:40:01.087Z,101182.89
2018-09-19T16:42:29.379Z,101182.99
2018-09-19T16:44:57.660Z,101178.38
2018-09-19T16:47:26.227Z,101184.92
2018-09-19T16:49:55.408Z,101184.23
2018-09-19T16:52:23.993Z,101185.56
2018-09-19T16:54:53.661Z,101187.52
2018-09-19T16:57:22.076Z,101183.63
2018-09-19T16:59:50.304Z,101187.47
2018-09-19T17:02:19.392Z,101186.34
2018-09-19T17:04:47.644Z,101186.91
2018-09-19T17:07:15.921Z,101186.59
2018-09-19T17:09:44.378Z,101189.80
2018-09-19T17:12:12.874Z,101189.19
2018-09-19T17:14:41.172Z,101193.24
2018-09-19T17:17:09.471Z,101195.60
2018-09-19T17:19:38.001Z,101200.05
2018-09-19T17:22:06.522Z,101193.04
2018-09-19T17:24:34.945Z,101191.91
2018-09-19T17:27:03.503Z,101191.55
2018-09-19T17:29:31.873Z,101195.69
2018-09-19T17:32:00.128Z,101192.17
2018-09-19T17:34:28.447Z,101196.67
2018-09-19T17:36:56.653Z,101192.75
2018-09-19T17:39:24.960Z,101195.87
2018-09-19T17:41:53.311Z,101201.64
2018-09-19T17:44:21.553Z,101198.19
2018-09-19T17:46:49.970Z,101195.67
2018-09-19T17:49:18.295Z,101197.87
2018-09-19T17:51:46.625Z,101194.14
2018-09-19T17:54:14.940Z,101200.45
2018-09-19T17:56:43.229Z,101199.14
2018-09-19T17:59:11.538Z,101204.11
2018-09-19T18:01:39.778Z,101208.80
2018-09-19T18:04:08.041Z,101209.94
2018-09-19T18:06:36.384Z,101210.03
2018-09-19T18:09:05.449Z,101212.48
2018-09-19T18:11:33.681Z,101213.33
2018-09-19T18:14:01.937Z,101211.94
2018-09-19T18:16:30.303Z,101208.15
2018-09-19T18:18:59.501Z,101212.39
2018-09-19T18:21:27.747Z,101210.83
2018-09-19T18:23:56.055Z,101216.33
2018-09-19T18:26:24.294Z,101217.83
2018-09-19T18:28:52.562Z,101219.61
2018-09-19T18:31:20.792Z,101217.72
2018-09-19T18:33:49.174Z,101216.73
2018-09-19T18:36:17.474Z,101217.72
2018-09-19T18:38:45.767Z,101215.06
2018-09-19T18:41:14.559Z,101221.41
2018-09-19T18:43:42.839Z,101220.20
2018-09-19T18:46:11.134Z,101220.69
2018-09-19T18:48:39.343Z,101223.21
2018-09-19T18:51:08.598Z,101218.83
2018-09-19T18:53:36.913Z,101227.78
2018-09-19T18:56:05.444Z,101225.28
2018-09-19T18:58:33.732Z,101224.78
2018-09-19T19:01:01.998Z,101221.88
2018-09-19T19:03:30.654Z,101229.33
2018-09-19T19:05:58.892Z,101229.23
2018-09-19T19:08:27.383Z,101226.62
2018-09-19T19:10:55.657Z,101227.48
2018-09-19T19:13:23.951Z,101228.16
2018-09-19T19:15:52.952Z,101226.78
2018-09-19T19:18:21.887Z,101228.62
2018-09-19T19:20:50.203Z,101231.45
2018-09-19T19:23:19.616Z,101232.39
2018-09-19T19:28:15.173Z,101232.69
2018-09-19T19:30:43.610Z,101231.98
2018-09-19T19:33:12.000Z,101234.83
2018-09-19T19:35:40.487Z,101235.19
2018-09-19T19:38:08.878Z,101240.23
2018-09-19T19:40:37.409Z,101235.25
2018-09-19T19:43:05.905Z,101244.62
2018-09-19T19:45:34.537Z,101241.92
2018-09-19T19:48:02.870Z,101238.81
2018-09-19T19:50:31.522Z,101243.70
2018-09-19T19:52:59.904Z,101241.05
2018-09-19T19:55:28.281Z,101244.94
2018-09-19T19:57:57.341Z,101242.92
2018-09-19T20:00:25.930Z,101244.52
2018-09-19T20:02:54.204Z,101234.09
2018-09-19T20:05:22.529Z,101241.56
2018-09-19T20:07:50.812Z,101239.41
2018-09-19T20:10:19.254Z,101235.52
2018-09-19T20:12:47.514Z,101240.37
2018-09-19T20:15:16.197Z,101238.70
2018-09-19T20:17:44.615Z,101242.70
2018-09-19T20:20:12.999Z,101245.84
2018-09-19T20:22:41.313Z,101245.95
2018-09-19T20:25:09.619Z,101253.94
2018-09-19T20:27:38.040Z,101249.89
2018-09-19T20:30:07.068Z,101259.09
2018-09-19T20:32:35.426Z,101257.42
2018-09-19T20:35:03.679Z,101261.89
2018-09-19T20:37:31.987Z,101260.14
2018-09-19T20:40:00.942Z,101259.55
2018-09-19T20:42:29.245Z,101263.85
2018-09-19T20:44:58.454Z,101260.34
2018-09-19T20:47:26.904Z,101263.91
2018-09-19T20:49:55.432Z,101263.17
2018-09-19T20:52:23.741Z,101264.53
2018-09-19T20:54:52.035Z,101262.27
2018-09-19T20:57:20.439Z,101255.68
2018-09-19T20:59:49.013Z,101254.81
2018-09-19T21:02:17.261Z,101262.69
2018-09-19T21:04:45.592Z,101260.11
2018-09-19T21:07:13.837Z,101261.44
2018-09-19T21:09:42.093Z,101262.92
2018-09-19T21:12:10.322Z,101263.37
2018-09-19T21:14:38.617Z,101259.79
2018-09-19T21:17:06.861Z,101259.69
2018-09-19T21:19:35.117Z,101264.98
2018-09-19T21:22:03.413Z,101270.89
2018-09-19T21:24:31.498Z,101266.92
2018-09-19T21:26:59.665Z,101271.42
2018-09-19T21:29:27.891Z,101270.58
2018-09-19T21:31:56.071Z,101263.91
2018-09-19T21:34:24.548Z,101269.27
2018-09-19T21:36:53.046Z,101268.00
2018-09-19T21:39:21.285Z,101267.11
2018-09-19T21:41:49.527Z,101266.72
2018-09-19T21:44:17.701Z,101269.37
2018-09-19T21:46:45.868Z,101267.56
2018-09-19T21:49:14.083Z,101269.38
2018-09-19T21:51:42.273Z,101279.56
2018-09-19T21:54:10.444Z,101273.39
2018-09-19T21:56:38.661Z,101270.30
2018-09-19T21:59:06.854Z,101277.36
2018-09-19T22:01:41.728Z,101274.28
2018-09-19T22:04:10.571Z,101273.87
2018-09-19T22:06:39.058Z,101272.13
2018-09-19T22:09:11.436Z,101270.34
2018-09-19T22:11:46.048Z,101268.14
2018-09-19T22:14:14.853Z,101264.61
2018-09-19T22:16:42.996Z,101257.13
2018-09-19T22:19:11.282Z,101260.22
2018-09-19T22:21:39.498Z,101264.22
2018-09-19T22:24:07.817Z,101265.98
2018-09-19T22:26:36.455Z,101263.30
2018-09-19T22:29:04.708Z,101262.88
2018-09-19T22:31:33.147Z,101266.88
2018-09-19T22:34:01.530Z,101258.91
2018-09-19T22:36:29.792Z,101260.70
2018-09-19T22:38:57.988Z,101265.54
2018-09-19T22:41:26.320Z,101263.32
2018-09-19T22:43:54.522Z,101262.02
2018-09-19T22:46:23.018Z,101253.64
2018-09-19T22:48:51.268Z,101257.62
2018-09-19T22:51:19.440Z,101261.58
2018-09-19T22:53:47.714Z,101258.91
2018-09-19T22:56:15.976Z,101256.30
2018-09-19T22:58:44.152Z,101253.66
2018-09-19T23:01:12.406Z,101257.61
2018-09-19T23:03:40.649Z,101250.09
2018-09-19T23:06:09.189Z,101251.85
2018-09-19T23:08:37.362Z,101248.79
2018-09-19T23:11:05.638Z,101253.63
2018-09-19T23:13:33.814Z,101249.25
2018-09-19T23:16:02.002Z,101257.63
2018-09-19T23:18:30.158Z,101251.93
2018-09-19T23:20:58.333Z,101252.36
2018-09-19T23:23:26.614Z,101253.25
2018-09-19T23:25:54.780Z,101248.42
2018-09-19T23:28:22.956Z,101251.48
2018-09-19T23:30:51.438Z,101245.77
2018-09-19T23:33:20.169Z,101252.81
2018-09-19T23:35:48.338Z,101250.17
2018-09-19T23:38:16.448Z,101252.81
2018-09-19T23:40:44.824Z,101251.06
2018-09-19T23:43:13.081Z,101250.61
2018-09-19T23:45:41.309Z,101252.36
2018-09-19T23:48:10.040Z,101261.61
2018-09-19T23:50:38.317Z,101258.09
2018-09-19T23:53:06.525Z,101258.97
2018-09-19T23:55:34.873Z,101260.29
2018-09-19T23:58:03.093Z,101254.14
